Weather at Pine River Airport

Public forecast

Using degrees Fahrenheit for public forecast. Weather courtesy of forecast.io.

Closest aviation weather report (METAR) to Pine River Airport

Closest report is Merrill Municipal Airport, 8.0 nm (14.8 km) W. Retrieved 2021/06/23 01:55 UTC (20 minutes ago):

KRRL 230155Z AUTO 00000KT 10SM CLR 14/07 A2991 RMK AO2 T01430066 TSNO

Closest aviation forecast (TAF) to Pine River Airport

Closest forecast is Wausau Downtown Airport, 17.2 nm (31.8 km) SSW. Retrieved 2021-06-23 00:39 UTC (2 hours ago):

TAF KAUW 222336Z 2300/2324 25006KT P6SM SCT070 FM230300 15004KT P6SM SCT250 FM231000 16005KT P6SM BKN070 FM231200 16005KT P6SM BKN050 TEMPO 2313/2317 BKN015 FM231700 19008G15KT P6SM BKN025 FM231900 19009G16KT P6SM SCT035